Time;durP1;ratioP1;P1;durP2;ratioP2;P2;SDS_P1;SDS_P2;PMS_P1;PMS_P2;Temp;Humidity;BMP_temperature;BMP_pressure;BME280_temperature;BME280_humidity;BME280_pressure;Samples;Min_cycle;Max_cycle;Signal;HPM_P1;HPM_P2
2021/09/29 00:00:45;;;;;;;4.13;2.03;;;14.10;99.90;;;;;;5110511;28;20015;-40
2021/09/29 00:03:10;;;;;;;6.15;2.08;;;14.10;99.90;;;;;;5109807;28;20023;-41
2021/09/29 00:05:38;;;;;;;4.97;2.08;;;14.00;99.90;;;;;;5108896;28;20020;-41
2021/09/29 00:08:05;;;;;;;6.65;2.40;;;14.00;99.90;;;;;;5110265;28;20035;-39
2021/09/29 00:10:33;;;;;;;6.43;2.30;;;14.00;99.90;;;;;;5108816;28;20103;-38
2021/09/29 00:13:02;;;;;;;5.20;2.05;;;14.00;99.90;;;;;;5110069;28;20027;-40
2021/09/29 00:15:27;;;;;;;3.60;2.20;;;14.00;99.90;;;;;;5109796;28;20051;-40
2021/09/29 00:17:53;;;;;;;4.72;2.83;;;13.90;99.90;;;;;;5108909;28;20059;-41
2021/09/29 00:20:19;;;;;;;6.60;2.10;;;13.90;99.90;;;;;;5111426;28;20048;-39
2021/09/29 00:22:45;;;;;;;3.60;2.50;;;14.00;99.90;;;;;;5113827;28;20551;-36
2021/09/29 00:25:18;;;;;;;3.95;2.13;;;14.00;99.90;;;;;;5113134;28;20030;-36
2021/09/29 00:27:44;;;;;;;4.07;2.17;;;14.00;99.90;;;;;;5113514;28;20360;-38
2021/09/29 00:30:11;;;;;;;6.57;2.90;;;14.10;99.90;;;;;;5113225;28;20053;-37
2021/09/29 00:32:42;;;;;;;4.40;2.35;;;14.10;99.90;;;;;;5110086;28;20012;-39
2021/09/29 00:35:09;;;;;;;4.22;2.10;;;14.20;99.90;;;;;;5113347;28;20023;-41
2021/09/29 00:37:35;;;;;;;4.25;2.30;;;14.20;99.90;;;;;;5112432;28;20119;-40
2021/09/29 00:40:01;;;;;;;4.95;3.03;;;14.20;99.90;;;;;;5113001;28;20099;-37
2021/09/29 00:42:29;;;;;;;2.58;2.08;;;14.30;99.90;;;;;;5112805;28;20031;-41
2021/09/29 00:44:55;;;;;;;3.80;2.30;;;14.20;99.90;;;;;;5072566;28;20031;-39
2021/09/29 00:47:20;;;;;;;5.50;2.30;;;14.20;99.90;;;;;;5100242;28;20027;-40
2021/09/29 00:49:49;;;;;;;6.88;2.80;;;14.20;99.90;;;;;;5112908;28;20412;-37
2021/09/29 00:52:15;;;;;;;4.30;2.28;;;14.20;99.90;;;;;;5112648;28;20062;-40
2021/09/29 00:54:41;;;;;;;4.43;2.25;;;14.10;99.90;;;;;;5112247;28;20062;-39
2021/09/29 00:57:08;;;;;;;6.88;2.50;;;14.10;99.90;;;;;;5112752;28;20019;-42
2021/09/29 00:59:34;;;;;;;4.90;2.65;;;14.10;99.90;;;;;;5111745;28;20023;-38
2021/09/29 01:02:00;;;;;;;6.68;2.70;;;14.00;99.90;;;;;;5112357;28;20031;-40
2021/09/29 01:04:32;;;;;;;3.88;2.42;;;14.10;99.90;;;;;;5112345;28;20027;-41
2021/09/29 01:07:01;;;;;;;;;;;14.10;99.90;;;;;;5112447;28;20102;-41
2021/09/29 01:09:26;;;;;;;3.83;2.33;;;14.10;99.90;;;;;;5089959;28;19927;-40
2021/09/29 01:12:19;;;;;;;7.28;3.08;;;14.20;99.90;;;;;;5112921;28;20387;-39
2021/09/29 01:14:54;;;;;;;4.72;2.78;;;14.20;99.90;;;;;;5094253;28;20078;-40
2021/09/29 01:17:29;;;;;;;4.60;3.08;;;14.20;99.90;;;;;;5111492;28;20123;-35
2021/09/29 01:20:06;;;;;;;4.40;2.88;;;14.20;99.90;;;;;;5092140;28;20066;-41
2021/09/29 01:22:49;;;;;;;6.47;3.10;;;14.20;99.90;;;;;;5111483;28;20054;-41
2021/09/29 01:25:23;;;;;;;6.93;3.85;;;14.20;99.90;;;;;;5112049;28;20026;-39
2021/09/29 01:27:50;;;;;;;6.55;3.30;;;14.20;99.90;;;;;;5111776;28;20066;-40
2021/09/29 01:30:16;;;;;;;8.10;3.25;;;14.20;99.90;;;;;;5110652;28;20044;-40
2021/09/29 01:32:42;;;;;;;8.68;3.70;;;14.10;99.90;;;;;;5111206;28;20023;-41
2021/09/29 01:35:08;;;;;;;5.60;3.38;;;14.10;99.90;;;;;;5111352;28;20111;-37
2021/09/29 01:37:34;;;;;;;5.75;3.60;;;14.10;99.90;;;;;;5111759;28;20070;-37
2021/09/29 01:40:00;;;;;;;7.47;4.00;;;14.00;99.90;;;;;;5112308;28;20036;-39
2021/09/29 01:42:26;;;;;;;4.25;2.88;;;13.90;99.90;;;;;;5110777;28;20019;-37
2021/09/29 01:44:51;;;;;;;8.27;3.90;;;13.90;99.90;;;;;;5112137;28;20032;-39
2021/09/29 01:47:17;;;;;;;4.50;3.25;;;13.90;99.90;;;;;;5111780;28;20016;-38
2021/09/29 01:49:48;;;;;;;4.93;3.50;;;13.90;99.90;;;;;;5111048;28;20344;-39
2021/09/29 01:52:19;;;;;;;8.20;3.80;;;13.90;99.90;;;;;;5071238;28;20059;-33
2021/09/29 01:54:49;;;;;;;6.72;3.97;;;13.90;99.90;;;;;;5102212;28;20045;-39
2021/09/29 01:57:16;;;;;;;5.45;3.88;;;13.80;99.90;;;;;;5109678;28;20047;-37
2021/09/29 01:59:43;;;;;;;5.30;3.88;;;13.80;99.90;;;;;;5111542;28;20399;-37
2021/09/29 02:02:09;;;;;;;9.25;4.10;;;13.80;99.90;;;;;;5112108;28;20104;-40
2021/09/29 02:04:35;;;;;;;6.00;3.80;;;13.80;99.90;;;;;;5110105;28;20051;-40
2021/09/29 02:07:00;;;;;;;5.55;4.28;;;13.80;99.90;;;;;;5111482;28;20026;-40
2021/09/29 02:09:30;;;;;;;7.20;4.75;;;13.70;99.90;;;;;;5111301;28;20015;-41
2021/09/29 02:11:56;;;;;;;6.50;4.38;;;13.70;99.90;;;;;;5111071;28;20160;-37
2021/09/29 02:14:25;;;;;;;5.60;3.92;;;13.80;99.90;;;;;;5110460;28;20019;-42
2021/09/29 02:16:53;;;;;;;8.27;3.75;;;13.70;99.90;;;;;;5110902;28;20027;-39
2021/09/29 02:19:19;;;;;;;5.07;3.95;;;13.80;99.90;;;;;;5110003;28;20016;-40
2021/09/29 02:21:46;;;;;;;5.95;3.78;;;13.70;99.90;;;;;;5111800;28;20165;-41
2021/09/29 02:24:11;;;;;;;7.88;4.20;;;13.70;99.90;;;;;;5111257;28;20024;-38
2021/09/29 02:26:38;;;;;;;5.15;3.55;;;13.70;99.90;;;;;;5110690;28;20034;-38
2021/09/29 02:29:08;;;;;;;4.78;3.97;;;13.70;99.90;;;;;;5111156;28;20024;-37
2021/09/29 02:31:34;;;;;;;5.90;3.80;;;13.70;99.90;;;;;;5109804;28;20034;-40
2021/09/29 02:33:59;;;;;;;5.95;4.00;;;13.70;99.90;;;;;;5111162;28;20012;-35
2021/09/29 02:36:28;;;;;;;5.68;3.40;;;13.60;99.90;;;;;;5110426;28;20441;-39
2021/09/29 02:38:54;;;;;;;4.07;3.40;;;13.60;99.90;;;;;;5110723;28;20093;-36
2021/09/29 02:41:20;;;;;;;7.28;3.72;;;13.60;99.90;;;;;;5110322;28;20024;-40
2021/09/29 02:43:52;;;;;;;6.07;3.90;;;13.50;99.90;;;;;;5110571;28;20098;-40
2021/09/29 02:46:18;;;;;;;8.75;4.15;;;13.50;99.90;;;;;;5109425;28;20428;-38
2021/09/29 02:48:43;;;;;;;5.53;4.10;;;13.50;99.90;;;;;;5111093;28;20129;-38
2021/09/29 02:51:09;;;;;;;6.28;4.20;;;13.50;99.90;;;;;;5111127;28;20020;-38
2021/09/29 02:53:37;;;;;;;4.72;3.70;;;13.40;99.90;;;;;;5109802;28;20424;-39
2021/09/29 02:56:04;;;;;;;5.97;3.92;;;13.40;99.90;;;;;;5110267;28;20512;-41
2021/09/29 02:58:31;;;;;;;7.18;3.65;;;13.40;99.90;;;;;;5110233;28;20447;-37
2021/09/29 03:01:01;;;;;;;5.13;3.75;;;13.40;99.90;;;;;;5109734;28;20023;-40
2021/09/29 03:03:32;;;;;;;4.88;3.50;;;13.40;99.90;;;;;;5110065;28;20034;-40
2021/09/29 03:05:59;;;;;;;5.75;3.50;;;13.40;99.90;;;;;;5110312;28;20158;-35
2021/09/29 03:08:24;;;;;;;6.65;3.70;;;13.40;99.90;;;;;;5109912;28;20061;-39
2021/09/29 03:10:50;;;;;;;6.13;3.40;;;13.40;99.90;;;;;;5110506;28;20020;-35
2021/09/29 03:13:15;;;;;;;7.43;4.00;;;13.40;99.90;;;;;;5109941;28;20031;-36
2021/09/29 03:15:41;;;;;;;6.97;4.13;;;13.40;99.90;;;;;;5109933;28;20023;-38
2021/09/29 03:18:09;;;;;;;6.07;3.70;;;13.30;99.90;;;;;;5110830;28;20437;-38
2021/09/29 03:20:41;;;;;;;8.43;3.72;;;13.40;99.90;;;;;;5108773;28;20047;-40
2021/09/29 03:23:07;;;;;;;5.93;3.55;;;13.40;99.90;;;;;;5110270;28;20061;-39
2021/09/29 03:25:32;;;;;;;5.70;4.15;;;13.40;99.90;;;;;;5110193;28;20012;-35
2021/09/29 03:28:02;;;;;;;5.93;3.42;;;13.40;99.90;;;;;;5109728;28;20509;-40
2021/09/29 03:30:28;;;;;;;3.38;3.03;;;13.50;99.90;;;;;;5069690;28;20495;-40
2021/09/29 03:32:56;;;;;;;5.65;3.35;;;13.50;99.90;;;;;;5097706;28;20031;-41
2021/09/29 03:35:23;;;;;;;6.15;3.55;;;13.50;99.90;;;;;;5108105;28;20060;-41
2021/09/29 03:37:49;;;;;;;6.25;3.28;;;13.50;99.90;;;;;;5110026;28;20459;-41
2021/09/29 03:40:15;;;;;;;4.05;3.25;;;13.50;99.90;;;;;;5109686;28;20038;-42
2021/09/29 03:42:42;;;;;;;7.25;3.30;;;13.50;99.90;;;;;;5109503;28;20016;-38
2021/09/29 03:45:09;;;;;;;4.28;3.03;;;13.50;99.90;;;;;;5110461;28;20375;-38
2021/09/29 03:47:35;;;;;;;3.88;3.10;;;13.50;99.90;;;;;;5109165;28;20027;-36
2021/09/29 03:50:00;;;;;;;6.18;3.78;;;13.50;99.90;;;;;;5110024;28;20024;-38
2021/09/29 03:52:29;;;;;;;5.13;3.13;;;13.50;99.90;;;;;;5092276;28;20114;-41
2021/09/29 03:54:55;;;;;;;3.88;3.15;;;13.50;99.90;;;;;;5110388;28;20015;-40
2021/09/29 03:57:21;;;;;;;5.35;3.40;;;13.50;99.90;;;;;;5110265;28;20150;-40
2021/09/29 03:59:46;;;;;;;6.38;3.60;;;13.50;99.90;;;;;;5111699;28;20484;-35
2021/09/29 04:02:12;;;;;;;4.95;3.60;;;13.50;99.90;;;;;;5111759;28;20030;-39
2021/09/29 04:04:37;;;;;;;4.53;3.28;;;13.60;99.90;;;;;;5111145;28;20037;-41
2021/09/29 04:07:03;;;;;;;5.22;3.92;;;13.60;99.90;;;;;;5112219;28;20027;-39
2021/09/29 04:09:29;;;;;;;6.35;3.67;;;13.60;99.90;;;;;;5111576;28;20405;-39
2021/09/29 04:11:54;;;;;;;5.68;3.45;;;13.70;99.90;;;;;;5113589;28;20031;-40
2021/09/29 04:14:29;;;;;;;5.57;3.55;;;13.60;99.90;;;;;;5113271;28;20054;-35
2021/09/29 04:16:54;;;;;;;5.28;3.40;;;13.70;99.90;;;;;;5113758;28;20076;-40
2021/09/29 04:19:23;;;;;;;6.30;3.65;;;13.70;99.90;;;;;;5112613;28;20051;-38
2021/09/29 04:21:49;;;;;;;5.07;3.45;;;13.70;99.90;;;;;;5113480;28;20039;-37
2021/09/29 04:24:15;;;;;;;6.55;3.88;;;13.70;99.90;;;;;;5112922;28;20049;-38
2021/09/29 04:26:41;;;;;;;5.40;3.80;;;13.70;99.90;;;;;;5113616;28;20501;-38
2021/09/29 04:29:08;;;;;;;8.77;3.72;;;13.70;99.90;;;;;;5113639;28;20020;-38
2021/09/29 04:31:33;;;;;;;7.30;4.00;;;13.70;99.90;;;;;;5112968;28;20125;-39
2021/09/29 04:33:59;;;;;;;7.28;3.40;;;13.70;99.90;;;;;;5113009;28;20031;-40
2021/09/29 04:36:24;;;;;;;5.47;4.00;;;13.70;99.90;;;;;;5112851;28;20073;-38
2021/09/29 04:38:50;;;;;;;6.07;3.58;;;13.60;99.90;;;;;;5112829;28;20028;-41
2021/09/29 04:41:16;;;;;;;4.72;3.03;;;13.60;99.90;;;;;;5113098;28;20073;-39
2021/09/29 04:43:42;;;;;;;3.35;2.75;;;13.60;99.90;;;;;;5113077;28;20496;-38
2021/09/29 04:46:08;;;;;;;6.97;3.47;;;13.60;99.90;;;;;;5112659;28;20022;-37
2021/09/29 04:48:36;;;;;;;4.68;3.08;;;13.60;99.90;;;;;;5112942;28;20023;-40
2021/09/29 04:51:02;;;;;;;5.40;3.53;;;13.60;99.90;;;;;;5113641;28;20108;-37
2021/09/29 04:53:27;;;;;;;8.95;4.05;;;13.60;99.90;;;;;;5112097;28;20120;-38
2021/09/29 04:55:57;;;;;;;7.72;3.75;;;13.60;99.90;;;;;;5112967;28;20599;-40
2021/09/29 04:58:23;;;;;;;6.68;3.78;;;13.60;99.90;;;;;;5071564;28;20443;-37
2021/09/29 05:00:49;;;;;;;7.38;4.00;;;13.60;99.90;;;;;;5100541;28;20035;-39
2021/09/29 05:03:18;;;;;;;9.88;4.03;;;13.60;99.90;;;;;;5112574;28;20023;-40
2021/09/29 05:05:44;;;;;;;6.50;3.60;;;13.60;99.90;;;;;;5112186;28;20379;-36
2021/09/29 05:08:19;;;;;;;7.75;3.60;;;13.60;99.90;;;;;;5112713;28;20748;-40
2021/09/29 05:10:53;;;;;;;7.38;3.90;;;13.60;99.90;;;;;;5111594;28;20028;-39
2021/09/29 05:13:27;;;;;;;7.47;3.83;;;13.60;99.90;;;;;;5111973;28;20020;-37
2021/09/29 05:15:53;;;;;;;5.30;2.97;;;13.60;99.90;;;;;;5112421;28;20015;-39
2021/09/29 05:18:22;;;;;;;4.57;3.50;;;13.60;99.90;;;;;;5112133;28;20074;-38
2021/09/29 05:20:47;;;;;;;6.25;3.50;;;13.70;99.90;;;;;;5111519;28;20043;-36
2021/09/29 05:23:13;;;;;;;5.35;3.30;;;13.70;99.90;;;;;;5111934;28;20502;-39
2021/09/29 05:25:48;;;;;;;5.53;3.92;;;13.70;99.90;;;;;;5112378;28;20024;-40
2021/09/29 05:28:17;;;;;;;6.95;3.83;;;13.60;99.90;;;;;;5111643;28;20024;-39
2021/09/29 05:30:44;;;;;;;7.78;3.78;;;13.60;99.90;;;;;;5112301;28;20026;-39
2021/09/29 05:33:10;;;;;;;6.15;3.85;;;13.60;99.90;;;;;;5112602;28;20422;-40
2021/09/29 05:35:35;;;;;;;4.05;3.25;;;13.60;99.90;;;;;;5110930;28;20065;-41
2021/09/29 05:38:02;;;;;;;6.28;3.90;;;13.60;99.90;;;;;;5112240;28;20050;-38
2021/09/29 05:40:27;;;;;;;7.85;4.25;;;13.50;99.90;;;;;;5111642;28;20012;-38
2021/09/29 05:42:53;;;;;;;8.10;3.80;;;13.50;99.90;;;;;;5111699;28;20033;-37
2021/09/29 05:45:18;;;;;;;6.65;4.10;;;13.50;99.90;;;;;;5090840;28;20491;-46
2021/09/29 05:47:44;;;;;;;6.97;3.80;;;13.50;99.90;;;;;;5093474;28;20024;-36
2021/09/29 05:50:10;;;;;;;4.82;3.70;;;13.50;99.90;;;;;;5112569;28;20030;-44
2021/09/29 05:52:36;;;;;;;6.75;4.22;;;13.40;99.90;;;;;;5101219;28;20185;-42
2021/09/29 05:55:02;;;;;;;9.13;4.30;;;13.40;99.90;;;;;;5097315;28;20466;-42
2021/09/29 05:57:27;;;;;;;7.38;4.43;;;13.40;99.90;;;;;;5101608;28;20039;-43
2021/09/29 05:59:53;;;;;;;6.57;4.50;;;13.40;99.90;;;;;;5109983;28;20020;-43
2021/09/29 06:02:19;;;;;;;6.85;3.95;;;13.40;99.90;;;;;;5109436;28;20126;-40
2021/09/29 06:04:44;;;;;;;6.32;4.03;;;13.50;99.90;;;;;;5110337;28;20031;-43
2021/09/29 06:07:11;;;;;;;5.90;3.47;;;13.40;99.90;;;;;;5110335;28;20506;-42
2021/09/29 06:09:40;;;;;;;6.72;3.30;;;13.50;99.90;;;;;;5109056;28;20023;-43
2021/09/29 06:12:07;;;;;;;5.93;3.60;;;13.50;99.90;;;;;;5110376;28;20344;-40
2021/09/29 06:14:33;;;;;;;5.53;3.20;;;13.50;99.90;;;;;;5110529;28;20026;-40
2021/09/29 06:17:11;;;;;;;4.75;3.42;;;13.50;99.90;;;;;;5083422;28;20392;-33
2021/09/29 06:19:37;;;;;;;3.80;2.80;;;13.50;99.90;;;;;;5103081;28;20047;-42
2021/09/29 06:22:02;;;;;;;5.43;3.00;;;13.50;99.90;;;;;;5092810;28;20016;-35
2021/09/29 06:24:28;;;;;;;6.05;3.28;;;13.50;99.90;;;;;;5097553;28;20035;-42
2021/09/29 06:26:54;;;;;;;4.95;2.85;;;13.50;99.90;;;;;;5111516;28;20091;-41
2021/09/29 06:29:19;;;;;;;3.75;2.33;;;13.50;99.90;;;;;;5108043;28;20069;-35
2021/09/29 06:31:45;;;;;;;6.30;2.92;;;13.60;99.90;;;;;;5080185;28;20016;-40
2021/09/29 06:34:11;;;;;;;3.28;2.65;;;13.60;99.90;;;;;;5086822;28;20112;-39
2021/09/29 06:36:39;;;;;;;3.63;2.80;;;13.60;99.90;;;;;;5078203;28;20089;-39
2021/09/29 06:39:05;;;;;;;6.50;3.30;;;13.60;99.90;;;;;;5097807;28;20382;-40
2021/09/29 06:41:30;;;;;;;5.75;2.83;;;13.60;99.90;;;;;;5110777;28;20099;-40
2021/09/29 06:43:56;;;;;;;4.10;2.38;;;13.50;99.90;;;;;;5100147;28;20055;-39
2021/09/29 06:46:21;;;;;;;3.90;2.15;;;13.50;99.90;;;;;;5080222;28;20275;-42
2021/09/29 06:48:47;;;;;;;2.72;2.25;;;13.60;99.90;;;;;;5095847;28;20029;-38
2021/09/29 06:51:12;;;;;;;4.63;2.72;;;13.60;99.90;;;;;;5094779;28;20016;-43
2021/09/29 06:53:39;;;;;;;5.57;2.90;;;13.50;99.90;;;;;;5084766;28;20432;-42
2021/09/29 06:56:05;;;;;;;5.32;2.88;;;13.50;99.90;;;;;;5110709;28;20053;-44
2021/09/29 06:58:32;;;;;;;5.70;2.97;;;13.50;99.90;;;;;;5104718;28;20126;-43
2021/09/29 07:00:58;;;;;;;4.28;2.83;;;13.50;99.90;;;;;;5095112;28;20016;-43
2021/09/29 07:03:24;;;;;;;7.13;2.92;;;13.50;99.90;;;;;;5090391;28;20039;-38
2021/09/29 07:05:50;;;;;;;5.97;2.90;;;13.50;99.90;;;;;;5110323;28;20016;-41
2021/09/29 07:08:16;;;;;;;5.82;3.40;;;13.60;99.90;;;;;;5110562;28;20043;-44
2021/09/29 07:10:42;;;;;;;3.97;3.00;;;13.60;99.90;;;;;;5107736;28;20019;-42
2021/09/29 07:13:08;;;;;;;5.18;3.33;;;13.60;99.90;;;;;;5089368;28;20024;-43
2021/09/29 07:15:34;;;;;;;3.78;2.70;;;13.60;99.90;;;;;;5105967;28;20061;-41
2021/09/29 07:18:01;;;;;;;7.97;3.25;;;13.60;99.90;;;;;;5083359;28;20032;-41
2021/09/29 07:20:27;;;;;;;5.63;2.67;;;13.70;99.90;;;;;;5087164;28;20041;-41
2021/09/29 07:22:53;;;;;;;6.85;2.92;;;13.60;99.90;;;;;;5086499;28;20030;-45
2021/09/29 07:25:19;;;;;;;4.38;2.58;;;13.60;99.90;;;;;;5100672;28;20051;-42
2021/09/29 07:27:51;;;;;;;3.53;2.42;;;13.60;99.90;;;;;;5110327;28;20024;-43
2021/09/29 07:30:17;;;;;;;3.93;2.73;;;13.60;99.90;;;;;;5113410;28;20041;-43
2021/09/29 07:32:46;;;;;;;5.10;3.10;;;13.60;99.90;;;;;;5086213;28;20013;-37
2021/09/29 07:35:12;;;;;;;6.43;3.70;;;13.60;99.90;;;;;;5088296;28;20368;-42
2021/09/29 07:37:38;;;;;;;5.85;3.00;;;13.50;99.90;;;;;;5113741;28;20142;-40
2021/09/29 07:40:06;;;;;;;5.68;3.15;;;13.50;99.90;;;;;;5114326;28;20526;-43
2021/09/29 07:42:31;;;;;;;3.10;2.42;;;13.50;99.90;;;;;;5113668;28;20031;-43
2021/09/29 07:44:57;;;;;;;5.28;2.78;;;13.50;99.90;;;;;;5107091;28;20271;-40
2021/09/29 07:47:22;;;;;;;6.68;2.72;;;13.50;99.90;;;;;;5113182;28;20109;-40
2021/09/29 07:49:48;;;;;;;5.80;2.58;;;13.50;99.90;;;;;;5101518;28;20020;-42
2021/09/29 07:52:14;;;;;;;4.93;2.70;;;13.50;99.90;;;;;;5113641;28;20364;-40
2021/09/29 07:54:39;;;;;;;4.57;2.90;;;13.50;99.90;;;;;;5113516;28;20020;-42
2021/09/29 07:57:05;;;;;;;6.10;2.75;;;13.50;99.90;;;;;;5113081;28;20063;-40
2021/09/29 07:59:30;;;;;;;5.43;2.80;;;13.50;99.90;;;;;;5081095;28;20051;-42
2021/09/29 08:01:56;;;;;;;6.63;2.70;;;13.60;99.90;;;;;;5103034;28;20016;-41
2021/09/29 08:04:21;;;;;;;5.38;2.53;;;13.60;99.90;;;;;;5113720;28;20027;-41
2021/09/29 08:06:48;;;;;;;6.07;2.30;;;13.60;99.90;;;;;;5113441;28;20121;-42
2021/09/29 08:09:20;;;;;;;3.80;2.25;;;13.70;99.90;;;;;;5112730;28;20383;-40
2021/09/29 08:11:46;;;;;;;3.97;2.35;;;13.70;99.90;;;;;;5111730;28;20542;-42
2021/09/29 08:14:12;;;;;;;3.50;2.80;;;13.70;99.90;;;;;;5113656;28;20111;-40
2021/09/29 08:16:37;;;;;;;3.35;2.40;;;13.70;99.90;;;;;;5112503;28;20020;-37
2021/09/29 08:19:03;;;;;;;3.00;2.33;;;13.70;99.90;;;;;;5114212;28;20065;-42
2021/09/29 08:21:31;;;;;;;3.20;2.25;;;13.80;99.90;;;;;;5112905;28;20513;-37
2021/09/29 08:24:10;;;;;;;3.85;2.50;;;13.80;99.90;;;;;;5091494;28;20071;-39
2021/09/29 08:26:57;;;;;;;2.85;2.13;;;13.70;99.90;;;;;;5112865;28;20030;-41
2021/09/29 08:32:38;;;;;;;5.22;2.97;;;13.80;99.90;;;;;;5085511;28;20453;-36
2021/09/29 08:39:53;;;;;;;2.83;2.40;;;13.80;99.90;;;;;;5111949;28;20068;-44
2021/09/29 08:45:21;;;;;;;6.82;3.25;;;13.80;99.90;;;;;;5112814;28;20084;-42
2021/09/29 08:48:03;;;;;;;3.97;2.40;;;13.80;99.90;;;;;;5111976;28;20028;-44
2021/09/29 08:53:45;;;;;;;6.47;3.60;;;13.80;99.90;;;;;;5004380;28;20045;-44
2021/09/29 09:16:06;;;;;;;5.07;4.00;;;14.20;99.90;;;;;;5109333;28;20030;-43
2021/09/29 09:18:32;;;;;;;4.95;4.25;;;14.20;99.90;;;;;;5111565;28;20050;-42
2021/09/29 09:21:11;;;;;;;5.10;4.60;;;14.20;99.90;;;;;;5111706;28;20036;-41
2021/09/29 09:23:40;;;;;;;4.30;3.90;;;14.10;99.90;;;;;;5111481;28;20019;-41
2021/09/29 09:26:23;;;;;;;4.43;4.03;;;14.10;99.90;;;;;;5110097;28;20528;-41
2021/09/29 09:29:01;;;;;;;4.45;4.00;;;14.00;99.90;;;;;;5112831;28;20031;-42
2021/09/29 09:31:27;;;;;;;4.20;3.80;;;14.00;99.90;;;;;;5111360;28;20024;-42
2021/09/29 09:33:56;;;;;;;3.72;3.42;;;14.00;99.90;;;;;;5111720;28;20015;-39
2021/09/29 09:36:43;;;;;;;3.42;3.13;;;14.00;99.90;;;;;;5071868;28;20459;-44
2021/09/29 09:39:16;;;;;;;3.15;2.85;;;13.90;99.90;;;;;;5082881;28;20178;-40
2021/09/29 09:41:53;;;;;;;3.30;2.60;;;13.90;99.90;;;;;;5105062;28;20074;-39
2021/09/29 09:44:30;;;;;;;2.85;2.65;;;13.80;99.90;;;;;;5097686;28;20027;-39
2021/09/29 09:47:06;;;;;;;2.90;2.60;;;13.70;99.90;;;;;;5107399;28;20089;-42
2021/09/29 09:49:43;;;;;;;4.00;3.00;;;13.70;99.90;;;;;;5097354;28;20019;-40
2021/09/29 09:52:08;;;;;;;2.95;2.75;;;13.60;99.90;;;;;;5080969;28;20036;-42
2021/09/29 09:54:39;;;;;;;3.88;2.85;;;13.60;99.90;;;;;;5081215;28;20528;-44
2021/09/29 09:57:17;;;;;;;3.03;2.83;;;13.50;99.90;;;;;;5089533;28;20024;-43
2021/09/29 09:59:50;;;;;;;3.30;3.00;;;13.60;99.90;;;;;;5097193;28;20505;-42
2021/09/29 10:02:16;;;;;;;4.82;2.85;;;13.50;99.90;;;;;;5089443;28;20140;-41
2021/09/29 10:04:46;;;;;;;3.17;2.90;;;13.50;99.90;;;;;;5104820;28;20015;-44
2021/09/29 10:07:11;;;;;;;3.15;2.75;;;13.50;99.90;;;;;;5111995;28;20031;-42
2021/09/29 10:09:42;;;;;;;2.97;2.70;;;13.50;99.90;;;;;;5110089;28;20024;-41
2021/09/29 10:12:26;;;;;;;2.95;2.75;;;13.50;99.90;;;;;;5104972;28;20024;-43
2021/09/29 10:28:18;;;;;;;2.47;2.13;;;13.30;99.90;;;;;;5066425;28;20097;-39
2021/09/29 10:33:26;;;;;;;4.13;2.67;;;13.30;99.90;;;;;;5056894;28;20491;-42
2021/09/29 10:36:10;;;;;;;2.85;2.30;;;13.40;99.90;;;;;;5066037;28;20496;-41
2021/09/29 10:44:03;;;;;;;2.70;2.50;;;13.40;99.90;;;;;;5065688;28;20048;-43
2021/09/29 10:49:13;;;;;;;2.30;1.83;;;13.40;99.90;;;;;;5066420;28;20032;-43
2021/09/29 11:09:18;;;;;;;2.10;1.17;;;13.20;99.90;;;;;;5058968;28;20035;-41
2021/09/29 11:34:02;;;;;;;1.38;0.70;;;13.20;99.90;;;;;;5062218;28;20050;-41
2021/09/29 11:39:35;;;;;;;0.80;0.70;;;13.10;99.90;;;;;;5061427;28;20029;-40
2021/09/29 12:12:30;;;;;;;1.55;0.95;;;13.40;99.90;;;;;;5067026;28;20037;-40
2021/09/29 12:14:59;;;;;;;1.10;0.90;;;13.50;99.90;;;;;;5068864;28;20041;-41
2021/09/29 12:17:32;;;;;;;0.68;0.68;;;13.70;99.90;;;;;;5071308;28;20024;-43
2021/09/29 12:20:00;;;;;;;1.42;1.00;;;13.90;99.90;;;;;;5064586;28;20391;-43
2021/09/29 12:22:31;;;;;;;2.72;1.00;;;13.90;99.90;;;;;;5057019;28;20035;-43
2021/09/29 12:25:04;;;;;;;1.70;1.17;;;14.10;99.90;;;;;;5056269;28;20017;-41
2021/09/29 12:27:35;;;;;;;2.17;1.27;;;14.10;99.90;;;;;;5070645;28;20120;-38
2021/09/29 12:33:51;;;;;;;1.92;1.50;;;14.30;99.90;;;;;;5069638;28;20060;-37
2021/09/29 12:35:54;;;;;;;0.90;0.90;;;14.30;99.90;;;;;;5051087;28;20033;-39
2021/09/29 12:38:21;;;;;;;3.38;1.00;;;14.20;99.90;;;;;;5067576;28;20027;-45
2021/09/29 12:40:51;;;;;;;1.17;0.90;;;14.10;99.90;;;;;;5064765;28;20021;-40
2021/09/29 12:43:20;;;;;;;1.08;0.77;;;14.00;99.90;;;;;;5064924;28;20472;-41
2021/09/29 12:45:48;;;;;;;1.70;1.10;;;13.90;99.90;;;;;;5066837;28;20095;-44
2021/09/29 12:48:16;;;;;;;1.08;0.88;;;13.90;99.90;;;;;;5058559;28;20014;-40
2021/09/29 12:53:46;;;;;;;2.33;1.25;;;13.80;99.90;;;;;;5058750;28;20043;-43
2021/09/29 12:56:18;;;;;;;3.45;1.05;;;13.80;99.90;;;;;;5056626;28;20823;-44
2021/09/29 12:58:47;;;;;;;4.03;1.00;;;13.60;99.90;;;;;;5056500;28;20017;-42
2021/09/29 13:01:14;;;;;;;4.20;0.93;;;13.40;99.90;;;;;;5055421;28;20111;-44
2021/09/29 13:03:41;;;;;;;2.10;0.80;;;13.30;99.90;;;;;;5070334;28;20127;-42
2021/09/29 13:06:07;;;;;;;1.98;0.85;;;13.30;99.90;;;;;;5067344;28;20093;-42
2021/09/29 13:08:33;;;;;;;1.92;1.00;;;13.30;99.90;;;;;;5059835;28;20472;-43
2021/09/29 13:10:59;;;;;;;8.55;3.80;;;13.40;99.90;;;;;;5063675;28;20027;-43
2021/09/29 13:13:27;;;;;;;5.90;2.70;;;13.50;99.90;;;;;;5064461;28;20121;-42
2021/09/29 13:15:54;;;;;;;5.82;2.30;;;13.60;99.90;;;;;;5069306;28;20170;-39
2021/09/29 13:18:42;;;;;;;4.47;1.88;;;13.70;99.90;;;;;;5068045;28;20074;-38
2021/09/29 13:21:14;;;;;;;2.55;1.50;;;13.90;99.90;;;;;;5069503;28;20107;-38
2021/09/29 13:24:10;;;;;;;3.78;1.48;;;14.10;99.90;;;;;;5061242;28;20056;-40
2021/09/29 13:35:20;;;;;;;3.78;1.20;;;14.80;99.90;;;;;;5039994;28;20051;-37
2021/09/29 13:37:45;;;;;;;5.85;1.27;;;14.90;99.90;;;;;;5068669;28;20036;-41
2021/09/29 13:40:12;;;;;;;3.42;1.00;;;15.00;99.90;;;;;;5068928;28;20073;-36
2021/09/29 13:42:40;;;;;;;4.13;1.08;;;15.00;99.90;;;;;;5067828;28;20028;-35
2021/09/29 13:45:07;;;;;;;3.47;0.98;;;14.90;99.90;;;;;;5058126;28;20022;-36
2021/09/29 13:47:32;;;;;;;2.72;0.77;;;14.90;99.90;;;;;;5051740;28;20052;-37
2021/09/29 13:50:01;;;;;;;2.53;0.70;;;14.80;99.90;;;;;;5060573;28;20056;-36
2021/09/29 13:52:27;;;;;;;3.22;0.82;;;14.80;99.90;;;;;;5051055;28;20067;-36
2021/09/29 13:54:57;;;;;;;3.05;0.95;;;14.70;99.90;;;;;;5060602;28;20550;-38
2021/09/29 14:30:08;;;;;;;2.30;0.80;;;16.00;99.30;;;;;;5060639;28;20047;-41
2021/09/29 14:32:45;;;;;;;4.38;1.02;;;16.10;98.80;;;;;;5049381;28;20036;-39
2021/09/29 14:35:11;;;;;;;4.43;0.70;;;16.10;97.30;;;;;;5061779;28;20044;-40
2021/09/29 14:37:36;;;;;;;3.65;0.80;;;16.10;97.40;;;;;;5050409;28;20094;-39
2021/09/29 14:40:02;;;;;;;3.72;0.65;;;16.10;98.00;;;;;;5058800;28;20090;-38
2021/09/29 14:42:28;;;;;;;3.22;0.93;;;16.10;97.30;;;;;;5052378;28;20017;-41
2021/09/29 14:44:53;;;;;;;3.72;0.70;;;16.10;96.00;;;;;;5055832;28;20016;-40
2021/09/29 14:47:21;;;;;;;0.88;0.40;;;15.90;95.30;;;;;;5055727;28;20096;-40
2021/09/29 14:49:47;;;;;;;1.50;0.65;;;15.60;96.00;;;;;;5053687;28;20181;-40
2021/09/29 14:52:13;;;;;;;2.17;0.80;;;15.30;96.60;;;;;;5058136;28;20098;-37
2021/09/29 14:54:40;;;;;;;1.10;0.50;;;15.00;97.00;;;;;;5050848;28;20500;-40
2021/09/29 14:57:15;;;;;;;2.05;0.47;;;14.80;97.20;;;;;;5059801;28;20114;-39
2021/09/29 14:59:44;;;;;;;3.22;0.60;;;14.70;97.80;;;;;;5051379;28;20159;-39
2021/09/29 15:02:16;;;;;;;2.28;0.50;;;14.50;98.10;;;;;;5064514;28;20021;-39
2021/09/29 15:04:43;;;;;;;1.55;0.65;;;14.40;98.30;;;;;;5054011;28;20035;-40
2021/09/29 15:07:08;;;;;;;2.70;0.82;;;14.10;98.90;;;;;;5064877;28;20021;-42
2021/09/29 15:09:34;;;;;;;2.03;0.70;;;13.80;99.90;;;;;;5053257;28;20036;-40
2021/09/29 15:12:00;;;;;;;1.48;0.73;;;13.40;99.90;;;;;;5064429;28;20009;-42
2021/09/29 15:14:31;;;;;;;5.20;0.95;;;13.30;99.90;;;;;;5062644;28;20504;-42
2021/09/29 15:24:59;;;;;;;7.90;1.17;;;12.90;99.90;;;;;;5072611;28;20043;-39
2021/09/29 15:27:44;;;;;;;3.50;1.30;;;12.80;99.90;;;;;;5058651;28;20475;-40
2021/09/29 15:51:19;;;;;;;3.08;1.00;;;11.70;99.90;;;;;;5068864;28;20032;-40
2021/09/29 16:01:55;;;;;;;1.92;0.70;;;11.60;99.90;;;;;;5066704;28;20056;-42
2021/09/29 16:04:31;;;;;;;3.15;0.70;;;11.60;99.90;;;;;;5062168;28;20107;-41
2021/09/29 16:07:08;;;;;;;2.92;0.80;;;11.50;99.90;;;;;;5053134;28;20035;-38
2021/09/29 16:17:26;;;;;;;2.35;0.88;;;11.40;99.90;;;;;;5068286;28;20021;-36
2021/09/29 16:31:02;;;;;;;2.47;1.02;;;11.30;99.90;;;;;;5066763;28;20173;-38
2021/09/29 16:33:51;;;;;;;2.22;0.93;;;11.30;99.90;;;;;;5069859;28;20032;-37
2021/09/29 16:36:17;;;;;;;3.53;1.00;;;11.30;99.90;;;;;;5070149;28;20025;-40
2021/09/29 16:38:45;;;;;;;2.10;0.93;;;11.30;99.90;;;;;;5070619;28;20023;-42
2021/09/29 16:41:15;;;;;;;3.00;0.63;;;11.40;99.90;;;;;;5071785;28;20031;-42
2021/09/29 16:43:41;;;;;;;2.65;0.80;;;11.40;99.90;;;;;;5065608;28;20037;-40
2021/09/29 16:46:07;;;;;;;1.42;0.80;;;11.40;99.90;;;;;;5064791;28;20052;-41
2021/09/29 16:48:34;;;;;;;2.17;1.08;;;11.40;99.90;;;;;;5068545;28;20480;-37